createdAt,value
2022-11-16T00:00:05.328Z,7.30
2022-11-16T00:02:33.109Z,7.35
2022-11-16T00:04:59.881Z,6.95
2022-11-16T00:07:26.671Z,7.27
2022-11-16T00:09:53.481Z,7.30
2022-11-16T00:12:20.194Z,7.05
2022-11-16T00:14:46.960Z,7.07
2022-11-16T00:17:13.720Z,7.05
2022-11-16T00:19:40.450Z,6.70
2022-11-16T00:22:07.220Z,7.10
2022-11-16T00:24:34.390Z,6.65
2022-11-16T00:27:01.139Z,7.22
2022-11-16T00:29:27.897Z,7.18
2022-11-16T00:31:55.448Z,6.90
2022-11-16T00:34:23.297Z,6.75
2022-11-16T00:36:50.460Z,7.07
2022-11-16T00:39:17.980Z,7.10
2022-11-16T00:41:44.913Z,6.95
2022-11-16T00:44:12.103Z,7.03
2022-11-16T00:46:39.080Z,7.00
2022-11-16T00:49:05.884Z,7.53
2022-11-16T00:51:33.939Z,7.10
2022-11-16T00:54:01.315Z,6.57
2022-11-16T00:56:28.257Z,6.97
2022-11-16T00:58:55.002Z,7.38
2022-11-16T01:01:21.912Z,6.88
2022-11-16T01:03:48.756Z,6.72
2022-11-16T01:06:16.008Z,7.13
2022-11-16T01:08:43.929Z,6.83
2022-11-16T01:11:32.566Z,7.18
2022-11-16T01:14:04.837Z,6.80
2022-11-16T01:16:31.698Z,7.25
2022-11-16T01:18:58.719Z,7.07
2022-11-16T01:21:25.515Z,6.80
2022-11-16T01:23:53.011Z,6.72
2022-11-16T01:26:19.932Z,6.55
2022-11-16T01:28:46.711Z,6.30
2022-11-16T01:31:13.749Z,6.82
2022-11-16T01:33:40.524Z,6.70
2022-11-16T01:36:14.399Z,7.03
2022-11-16T01:38:42.699Z,7.47
2022-11-16T01:41:13.359Z,6.80
2022-11-16T01:43:55.308Z,6.57
2022-11-16T01:46:22.630Z,6.40
2022-11-16T01:48:53.053Z,6.68
2022-11-16T01:51:20.093Z,6.93
2022-11-16T01:53:46.866Z,7.28
2022-11-16T01:56:13.836Z,6.65
2022-11-16T01:58:41.139Z,6.63
2022-11-16T02:01:08.236Z,7.68
2022-11-16T02:03:37.694Z,7.38
2022-11-16T02:06:16.145Z,7.32
2022-11-16T02:09:30.682Z,7.13
2022-11-16T02:12:06.514Z,6.97
2022-11-16T02:15:13.358Z,7.70
2022-11-16T02:17:43.602Z,7.15
2022-11-16T02:20:39.179Z,6.93
2022-11-16T02:23:30.871Z,6.75
2022-11-16T02:25:57.581Z,6.93
2022-11-16T02:28:38.766Z,6.93
2022-11-16T02:31:06.474Z,6.45
2022-11-16T02:33:40.837Z,6.40
2022-11-16T02:36:10.357Z,6.97
2022-11-16T02:38:39.502Z,6.53
2022-11-16T02:41:10.889Z,7.13
2022-11-16T02:44:00.793Z,6.72
2022-11-16T02:46:30.813Z,6.90
2022-11-16T02:48:59.127Z,7.03
2022-11-16T02:51:27.285Z,6.73
2022-11-16T02:54:08.872Z,6.60
2022-11-16T02:56:45.597Z,6.30
2022-11-16T02:59:17.379Z,6.63
2022-11-16T03:01:48.469Z,6.78
2022-11-16T03:04:20.656Z,6.83
2022-11-16T03:06:48.724Z,7.18
2022-11-16T03:09:19.698Z,6.22
2022-11-16T03:12:02.930Z,6.35
2022-11-16T03:14:41.559Z,6.90
2022-11-16T03:17:13.744Z,6.33
2022-11-16T03:19:55.760Z,6.82
2022-11-16T03:22:34.166Z,7.30
2022-11-16T03:25:01.131Z,6.10
2022-11-16T03:27:37.722Z,6.60
2022-11-16T03:30:09.465Z,6.57
2022-11-16T03:32:39.378Z,6.70
2022-11-16T03:35:27.206Z,6.43
2022-11-16T03:37:56.536Z,6.20
2022-11-16T03:40:24.797Z,6.45
2022-11-16T03:42:52.285Z,5.93
2022-11-16T03:45:19.475Z,6.00
2022-11-16T03:47:46.377Z,6.65
2022-11-16T03:50:13.316Z,6.30
2022-11-16T03:52:40.109Z,6.55
2022-11-16T03:55:07.162Z,6.83
2022-11-16T03:57:33.971Z,6.60
2022-11-16T04:00:00.788Z,6.30
2022-11-16T04:02:27.559Z,6.78
2022-11-16T04:05:12.970Z,6.60
2022-11-16T04:07:58.539Z,6.80
2022-11-16T04:10:44.323Z,5.80
2022-11-16T04:13:31.743Z,6.30
2022-11-16T04:16:16.889Z,5.95
2022-11-16T04:19:02.436Z,5.72
2022-11-16T04:21:51.356Z,5.57
2022-11-16T04:24:23.656Z,6.28
2022-11-16T04:27:12.497Z,5.95
2022-11-16T04:29:39.548Z,6.00
2022-11-16T04:32:24.798Z,6.07
2022-11-16T04:35:10.140Z,5.67
2022-11-16T04:37:48.976Z,6.40
2022-11-16T04:40:20.500Z,5.85
2022-11-16T04:42:52.004Z,6.38
2022-11-16T04:45:37.788Z,5.85
2022-11-16T04:48:05.158Z,6.07
2022-11-16T04:50:32.161Z,5.88
2022-11-16T04:52:59.265Z,5.97
2022-11-16T04:55:26.706Z,5.70
2022-11-16T04:57:53.711Z,5.55
2022-11-16T05:00:20.760Z,5.70
2022-11-16T05:02:47.456Z,5.82
2022-11-16T05:05:14.353Z,5.18
2022-11-16T05:07:41.404Z,5.93
2022-11-16T05:10:08.542Z,5.60
2022-11-16T05:12:35.580Z,5.77
2022-11-16T05:15:02.477Z,5.43
2022-11-16T05:17:29.345Z,5.95
2022-11-16T05:20:14.811Z,6.07
2022-11-16T05:22:41.612Z,5.68
2022-11-16T05:25:09.044Z,5.23
2022-11-16T05:27:36.416Z,5.93
2022-11-16T05:30:04.778Z,5.50
2022-11-16T05:32:31.847Z,5.95
2022-11-16T05:34:58.579Z,5.03
2022-11-16T05:37:26.805Z,5.60
2022-11-16T05:39:54.966Z,5.40
2022-11-16T05:42:21.763Z,5.50
2022-11-16T05:44:48.800Z,5.30
2022-11-16T05:47:15.586Z,5.22
2022-11-16T05:49:42.426Z,5.80
2022-11-16T05:52:09.190Z,5.97
2022-11-16T05:54:35.980Z,5.32
2022-11-16T05:57:02.712Z,5.80
2022-11-16T05:59:30.140Z,5.90
2022-11-16T06:01:57.840Z,5.60
2022-11-16T06:04:25.101Z,5.47
2022-11-16T06:06:52.004Z,5.50
2022-11-16T06:09:18.947Z,5.90
2022-11-16T06:11:45.695Z,5.90
2022-11-16T06:14:12.559Z,5.87
2022-11-16T06:16:39.343Z,5.90
2022-11-16T06:19:06.109Z,5.35
2022-11-16T06:21:33.146Z,5.60
2022-11-16T06:23:59.960Z,5.82
2022-11-16T06:26:26.711Z,5.40
2022-11-16T06:28:54.974Z,6.13
2022-11-16T06:31:21.959Z,5.93
2022-11-16T06:33:48.679Z,5.90
2022-11-16T06:36:15.457Z,6.10
2022-11-16T06:38:42.197Z,5.67
2022-11-16T06:41:09.031Z,5.28
2022-11-16T06:43:36.080Z,5.55
2022-11-16T06:46:02.897Z,5.47
2022-11-16T06:48:30.677Z,5.68
2022-11-16T06:50:57.577Z,5.20
2022-11-16T06:53:28.934Z,5.30
2022-11-16T06:56:00.458Z,5.40
2022-11-16T06:58:29.227Z,5.28
2022-11-16T07:00:56.070Z,5.53
2022-11-16T07:03:22.792Z,5.80
2022-11-16T07:05:50.049Z,5.47
2022-11-16T07:08:16.831Z,4.90
2022-11-16T07:10:43.503Z,5.68
2022-11-16T07:13:10.318Z,5.50
2022-11-16T07:15:37.081Z,6.07
2022-11-16T07:18:05.491Z,5.15
2022-11-16T07:20:32.765Z,5.70
2022-11-16T07:23:01.113Z,6.40
2022-11-16T07:25:27.943Z,5.63
2022-11-16T07:27:54.701Z,5.87
2022-11-16T07:30:21.447Z,5.40
2022-11-16T08:46:36.810Z,19.95
2022-11-16T08:49:03.778Z,20.15
2022-11-16T08:51:30.494Z,19.60
2022-11-16T08:53:58.181Z,19.42
2022-11-16T08:56:27.525Z,18.13
2022-11-16T08:58:58.480Z,18.15
2022-11-16T09:01:27.376Z,16.33
2022-11-16T09:03:54.369Z,17.75
2022-11-16T09:06:22.275Z,17.20
2022-11-16T09:08:49.503Z,18.20
2022-11-16T09:11:20.240Z,17.15
2022-11-16T09:13:48.591Z,17.15
2022-11-16T09:16:16.728Z,18.70
2022-11-16T09:18:45.622Z,17.80
2022-11-16T09:21:12.315Z,18.97
2022-11-16T09:23:39.045Z,17.48
2022-11-16T09:26:07.799Z,17.65
2022-11-16T09:28:34.852Z,18.45
2022-11-16T09:31:04.269Z,19.27
2022-11-16T09:33:31.502Z,17.80
2022-11-16T09:36:06.785Z,19.67
2022-11-16T09:39:13.904Z,19.20
2022-11-16T09:41:39.431Z,17.88
2022-11-16T09:44:09.516Z,19.48
2022-11-16T09:46:40.063Z,18.83
2022-11-16T09:49:23.265Z,19.73
2022-11-16T09:51:53.563Z,19.70
2022-11-16T09:54:24.929Z,18.83
2022-11-16T09:56:54.511Z,19.90
2022-11-16T09:59:32.219Z,18.40
2022-11-16T10:02:26.542Z,19.60
2022-11-16T10:05:08.376Z,17.92
2022-11-16T10:07:46.703Z,18.88
2022-11-16T10:10:37.761Z,20.90
2022-11-16T10:13:38.441Z,18.70
2022-11-16T10:16:19.828Z,18.40
2022-11-16T10:18:53.742Z,18.52
2022-11-16T10:21:30.952Z,18.70
2022-11-16T10:24:22.385Z,19.55
2022-11-16T10:27:27.760Z,19.90
2022-11-16T10:29:54.420Z,18.75
2022-11-16T10:32:28.901Z,19.80
2022-11-16T10:35:11.097Z,19.13
2022-11-16T10:37:50.159Z,18.65
2022-11-16T10:40:23.675Z,19.93
2022-11-16T10:43:01.085Z,19.75
2022-11-16T10:45:58.065Z,20.08
2022-11-16T10:48:30.976Z,20.55
2022-11-16T10:50:57.823Z,19.15
2022-11-16T10:53:32.036Z,20.37
2022-11-16T10:56:21.620Z,18.95
2022-11-16T10:59:01.304Z,18.60
2022-11-16T11:01:49.519Z,20.42
2022-11-16T11:04:28.508Z,19.33
2022-11-16T11:07:00.853Z,20.00
2022-11-16T11:09:35.953Z,20.40
2022-11-16T11:12:35.586Z,19.23
2022-11-16T11:15:11.368Z,17.77
2022-11-16T11:17:40.823Z,18.38
2022-11-16T11:20:27.932Z,17.37
2022-11-16T11:23:00.182Z,17.80
2022-11-16T11:25:36.948Z,18.58
2022-11-16T11:28:20.301Z,18.02
2022-11-16T11:31:07.457Z,19.73
2022-11-16T11:33:37.533Z,18.53
2022-11-16T11:36:04.575Z,19.08
2022-11-16T11:38:32.272Z,18.63
2022-11-16T11:41:05.180Z,17.90
2022-11-16T11:43:34.303Z,19.67
2022-11-16T11:46:09.781Z,17.37
2022-11-16T11:49:01.501Z,18.75
2022-11-16T11:51:33.906Z,18.88
2022-11-16T11:54:02.601Z,17.80
2022-11-16T11:56:31.902Z,18.50
2022-11-16T11:58:58.902Z,20.27
2022-11-16T12:01:44.371Z,18.63
2022-11-16T12:04:25.867Z,18.48
2022-11-16T12:06:59.686Z,18.30
2022-11-16T12:09:31.272Z,19.73
2022-11-16T12:12:16.625Z,18.30
2022-11-16T12:15:21.557Z,17.80
2022-11-16T12:18:06.147Z,16.58
2022-11-16T12:20:35.257Z,16.50
2022-11-16T12:23:20.136Z,16.95
2022-11-16T12:25:57.119Z,16.27
2022-11-16T12:28:51.059Z,15.77
2022-11-16T12:31:42.587Z,16.27
2022-11-16T12:34:38.322Z,17.38
2022-11-16T12:37:10.986Z,16.38
2022-11-16T12:40:22.834Z,18.87
2022-11-16T12:43:08.843Z,15.63
2022-11-16T12:45:57.767Z,15.88
2022-11-16T12:48:38.882Z,14.20
2022-11-16T12:51:14.415Z,14.48
2022-11-16T12:54:11.679Z,14.53
2022-11-16T12:56:53.009Z,13.85
2022-11-16T12:59:32.234Z,13.40
2022-11-16T13:02:17.439Z,11.90
2022-11-16T13:04:51.033Z,12.68
2022-11-16T13:07:23.390Z,13.80
2022-11-16T13:09:56.241Z,12.82
2022-11-16T13:12:23.619Z,13.05
2022-11-16T13:14:53.146Z,13.23
2022-11-16T13:17:26.883Z,12.38
2022-11-16T13:20:21.641Z,13.07
2022-11-16T13:22:58.202Z,12.23
2022-11-16T13:25:31.642Z,11.68
2022-11-16T13:28:20.098Z,14.23
2022-11-16T13:31:09.130Z,12.18
2022-11-16T13:33:42.313Z,11.87
2022-11-16T13:36:54.687Z,12.18
2022-11-16T13:39:50.327Z,12.10
2022-11-16T13:42:17.754Z,11.85
2022-11-16T13:44:50.324Z,13.38
2022-11-16T13:47:24.836Z,11.90
2022-11-16T13:50:00.414Z,11.32
2022-11-16T13:53:36.383Z,11.82
2022-11-16T13:55:36.178Z,12.23
2022-11-16T13:58:05.364Z,12.23
2022-11-16T14:00:37.044Z,11.17
2022-11-16T14:03:15.543Z,11.43
2022-11-16T14:05:42.360Z,12.40
2022-11-16T14:08:24.330Z,12.65
2022-11-16T14:10:50.983Z,11.52
2022-11-16T14:13:36.609Z,11.40
2022-11-16T14:16:21.682Z,11.85
2022-11-16T14:18:50.538Z,10.95
2022-11-16T14:21:35.185Z,10.88
2022-11-16T14:24:07.701Z,10.27
2022-11-16T14:26:43.492Z,12.13
2022-11-16T14:29:15.894Z,11.80
2022-11-16T14:31:57.040Z,11.70
2022-11-16T14:34:30.355Z,11.77
2022-11-16T14:36:58.788Z,12.75
2022-11-16T14:39:32.629Z,10.93
2022-11-16T14:42:03.484Z,11.40
2022-11-16T14:44:41.451Z,12.32
2022-11-16T14:47:36.031Z,11.38
2022-11-16T14:50:18.550Z,10.43
2022-11-16T14:52:51.947Z,13.23
2022-11-16T14:55:24.600Z,10.88
2022-11-16T14:58:26.777Z,11.23
2022-11-16T15:00:55.515Z,10.70
2022-11-16T15:03:26.043Z,11.88
2022-11-16T15:06:10.345Z,10.60
2022-11-16T15:08:42.482Z,10.90
2022-11-16T15:11:20.179Z,11.70
2022-11-16T15:13:47.391Z,10.93
2022-11-16T15:16:19.503Z,10.48
2022-11-16T15:18:59.532Z,10.60
2022-11-16T15:21:28.708Z,9.93
2022-11-16T15:26:44.123Z,12.02
2022-11-16T15:29:18.968Z,11.32
2022-11-16T15:31:45.930Z,10.90
2022-11-16T15:34:13.739Z,10.77
2022-11-16T15:36:41.318Z,10.50
2022-11-16T15:39:20.004Z,10.18
2022-11-16T15:41:47.144Z,9.50
2022-11-16T15:44:16.911Z,10.27
2022-11-16T15:46:46.050Z,9.10
2022-11-16T15:49:37.520Z,9.73
2022-11-16T15:52:05.587Z,10.15
2022-11-16T15:54:52.435Z,9.10
2022-11-16T15:57:20.757Z,9.20
2022-11-16T15:59:49.719Z,10.45
2022-11-16T16:02:18.895Z,10.32
2022-11-16T16:04:45.613Z,10.52
2022-11-16T16:07:13.638Z,11.18
2022-11-16T16:09:41.028Z,10.13
2022-11-16T16:12:24.709Z,10.40
2022-11-16T16:14:52.224Z,10.13
2022-11-16T16:17:26.749Z,10.52
2022-11-16T16:19:55.911Z,9.93
2022-11-16T16:22:34.296Z,9.10
2022-11-16T16:25:01.802Z,8.95
2022-11-16T16:27:30.271Z,8.95
2022-11-16T16:30:03.842Z,9.20
2022-11-16T16:32:34.237Z,8.73
2022-11-16T16:35:03.165Z,8.30
2022-11-16T16:37:31.560Z,9.35
2022-11-16T16:39:58.987Z,9.15
2022-11-16T16:42:26.163Z,8.35
2022-11-16T16:44:53.029Z,8.02
2022-11-16T16:47:22.520Z,7.47
2022-11-16T16:49:49.329Z,7.63
2022-11-16T16:52:16.545Z,8.50
2022-11-16T16:54:43.448Z,8.30
2022-11-16T16:57:17.151Z,8.10
2022-11-16T16:59:48.599Z,7.57
2022-11-16T17:02:16.147Z,7.55
2022-11-16T17:04:44.048Z,8.85
2022-11-16T17:07:10.746Z,8.50
2022-11-16T17:09:37.437Z,10.65
2022-11-16T17:12:04.426Z,11.57
2022-11-16T17:14:31.088Z,12.55
2022-11-16T17:16:57.826Z,11.55
2022-11-16T17:19:24.575Z,12.38
2022-11-16T17:21:52.117Z,12.88
2022-11-16T17:24:18.815Z,12.60
2022-11-16T17:26:48.342Z,15.98
2022-11-16T17:29:15.303Z,13.95
2022-11-16T17:31:44.074Z,14.13
2022-11-16T17:34:13.812Z,13.82
2022-11-16T17:36:41.927Z,12.17
2022-11-16T17:39:08.848Z,12.43
2022-11-16T17:41:35.524Z,16.48
2022-11-16T17:44:02.419Z,20.17
2022-11-16T17:46:29.279Z,14.07
2022-11-16T17:48:56.208Z,12.10
2022-11-16T17:51:24.829Z,12.90
2022-11-16T17:53:51.897Z,12.25
2022-11-16T17:56:21.136Z,12.80
2022-11-16T17:58:49.999Z,12.95
2022-11-16T18:01:16.742Z,11.83
2022-11-16T18:03:43.460Z,11.18
2022-11-16T18:06:15.833Z,11.35
2022-11-16T18:08:45.953Z,11.35
2022-11-16T18:11:13.866Z,11.55
2022-11-16T18:13:40.614Z,11.57
2022-11-16T18:16:21.059Z,12.38
2022-11-16T18:18:48.706Z,13.73
2022-11-16T18:21:20.730Z,15.88
2022-11-16T18:23:48.093Z,14.27
2022-11-16T18:26:16.655Z,13.73
2022-11-16T18:28:49.119Z,13.98
2022-11-16T18:31:18.458Z,11.05
2022-11-16T18:33:45.247Z,10.50
2022-11-16T18:36:12.641Z,9.70
2022-11-16T18:38:39.475Z,9.10
2022-11-16T18:41:12.019Z,9.10
2022-11-16T18:43:48.360Z,11.07
2022-11-16T18:46:15.299Z,11.38
2022-11-16T18:48:43.348Z,12.40
2022-11-16T18:51:11.164Z,10.27
2022-11-16T18:53:38.338Z,10.43
2022-11-16T18:56:05.721Z,10.05
2022-11-16T19:01:23.930Z,10.57
2022-11-16T19:03:51.833Z,9.87
2022-11-16T19:06:19.097Z,10.88
2022-11-16T19:08:53.767Z,12.57
2022-11-16T19:11:23.759Z,13.07
2022-11-16T19:14:03.835Z,13.30
2022-11-16T19:16:31.018Z,12.03
2022-11-16T19:18:57.642Z,13.43
2022-11-16T19:21:24.584Z,12.35
2022-11-16T19:23:53.677Z,12.75
2022-11-16T19:26:22.517Z,12.40
2022-11-16T19:28:50.175Z,12.10
2022-11-16T19:31:22.340Z,12.52
2022-11-16T19:33:53.988Z,12.02
2022-11-16T19:36:20.990Z,11.80
2022-11-16T19:38:48.489Z,11.48
2022-11-16T19:41:16.145Z,11.90
2022-11-16T19:43:42.929Z,10.77
2022-11-16T19:46:17.429Z,10.27
2022-11-16T19:48:45.828Z,5.85
2022-11-16T19:51:17.602Z,4.70
2022-11-16T19:53:44.495Z,4.80
2022-11-16T19:56:13.454Z,5.30
2022-11-16T19:58:40.689Z,4.40
2022-11-16T20:01:10.985Z,5.60
2022-11-16T20:03:41.780Z,5.88
2022-11-16T20:06:10.988Z,5.90
2022-11-16T20:08:40.425Z,6.05
2022-11-16T20:11:12.389Z,6.18
2022-11-16T20:13:39.064Z,6.45
2022-11-16T20:16:07.444Z,5.70
2022-11-16T20:18:34.191Z,6.20
2022-11-16T20:21:05.356Z,6.40
2022-11-16T20:23:36.076Z,7.40
2022-11-16T20:26:07.349Z,6.70
2022-11-16T20:28:38.536Z,6.53
2022-11-16T20:31:11.295Z,6.63
2022-11-16T20:33:38.315Z,6.82
2022-11-16T20:36:10.449Z,6.55
2022-11-16T20:38:38.412Z,5.80
2022-11-16T20:41:13.033Z,6.88
2022-11-16T20:43:40.258Z,6.83
2022-11-16T20:46:08.843Z,7.75
2022-11-16T20:48:36.322Z,7.68
2022-11-16T20:51:03.365Z,8.13
2022-11-16T20:53:30.210Z,7.57
2022-11-16T20:55:57.581Z,7.37
2022-11-16T20:58:24.871Z,8.05
2022-11-16T21:00:51.626Z,9.02
2022-11-16T21:03:18.317Z,10.50
2022-11-16T21:05:46.215Z,11.05
2022-11-16T21:08:12.942Z,11.10
2022-11-16T21:10:39.883Z,11.43
2022-11-16T21:13:26.154Z,11.73
2022-11-16T21:16:01.228Z,11.27
2022-11-16T21:18:30.909Z,10.80
2022-11-16T21:21:01.745Z,11.13
2022-11-16T21:23:29.955Z,11.98
2022-11-16T21:26:08.613Z,12.25
2022-11-16T21:28:35.217Z,10.73
2022-11-16T21:31:04.409Z,10.23
2022-11-16T21:33:31.800Z,11.10
2022-11-16T21:36:06.237Z,12.40
2022-11-16T21:38:34.051Z,10.68
2022-11-16T21:41:01.179Z,12.27
2022-11-16T21:43:28.340Z,10.82
2022-11-16T21:46:01.371Z,10.40
2022-11-16T21:48:28.086Z,11.32
2022-11-16T21:51:09.356Z,11.05
2022-11-16T21:53:36.518Z,11.27
2022-11-16T21:56:04.483Z,11.35
2022-11-16T21:58:31.390Z,12.00
2022-11-16T22:00:59.872Z,11.50
2022-11-16T22:03:28.787Z,12.45
2022-11-16T22:06:15.731Z,12.02
2022-11-16T22:08:42.609Z,14.02
2022-11-16T22:11:09.769Z,13.00
2022-11-16T22:13:37.587Z,13.25
2022-11-16T22:16:09.142Z,12.80
2022-11-16T22:18:36.133Z,12.57
2022-11-16T22:21:03.103Z,13.27
2022-11-16T22:23:30.066Z,12.77
2022-11-16T22:26:06.494Z,14.10
2022-11-16T22:28:34.853Z,13.65
2022-11-16T22:31:09.836Z,13.55
2022-11-16T22:33:37.162Z,14.40
2022-11-16T22:36:04.844Z,13.30
2022-11-16T22:38:31.511Z,14.60
2022-11-16T22:40:58.207Z,15.00
2022-11-16T22:43:26.977Z,13.90
2022-11-16T22:46:01.014Z,14.77
2022-11-16T22:48:31.439Z,13.97
2022-11-16T22:51:23.242Z,14.55
2022-11-16T22:53:54.326Z,14.43
2022-11-16T22:56:21.354Z,14.50
2022-11-16T22:58:47.987Z,14.52
2022-11-16T23:01:14.671Z,13.87
2022-11-16T23:03:41.537Z,14.85
2022-11-16T23:06:08.471Z,14.77
2022-11-16T23:08:35.643Z,13.45
2022-11-16T23:11:22.678Z,15.40
2022-11-16T23:14:08.483Z,14.10
2022-11-16T23:16:35.355Z,14.80
2022-11-16T23:19:02.130Z,14.32
2022-11-16T23:21:47.420Z,14.13
2022-11-16T23:24:33.756Z,14.23
2022-11-16T23:27:22.369Z,14.67
2022-11-16T23:29:49.367Z,14.90
2022-11-16T23:32:16.069Z,15.10
2022-11-16T23:34:42.702Z,16.05
2022-11-16T23:37:09.413Z,15.27
2022-11-16T23:39:36.090Z,14.70
2022-11-16T23:42:21.427Z,14.50
2022-11-16T23:44:48.150Z,15.05
2022-11-16T23:47:14.870Z,14.38
2022-11-16T23:49:41.763Z,14.63
2022-11-16T23:52:08.417Z,15.23
2022-11-16T23:54:35.111Z,15.52
2022-11-16T23:57:01.782Z,15.75
2022-11-16T23:59:28.429Z,16.05
